sensor_id;sensor_type;location;lat;lon;timestamp;P1;durP1;ratioP1;P2;durP2;ratioP2
33794;SDS011;51430;52.242;21.118;2024-01-15T00:50:09;11.90;;;9.20;;
33794;SDS011;51430;52.242;21.118;2024-01-15T04:17:35;17.50;;;13.00;;
33794;SDS011;51430;52.242;21.118;2024-01-15T05:18:53;12.50;;;11.20;;
33794;SDS011;51430;52.242;21.118;2024-01-15T05:24:58;13.60;;;12.20;;
33794;SDS011;51430;52.242;21.118;2024-01-15T05:31:11;12.70;;;11.40;;
33794;SDS011;51430;52.242;21.118;2024-01-15T05:34:45;13.00;;;11.70;;
33794;SDS011;51430;52.242;21.118;2024-01-15T05:37:48;13.30;;;11.90;;
33794;SDS011;51430;52.242;21.118;2024-01-15T06:05:44;12.50;;;11.00;;
33794;SDS011;51430;52.242;21.118;2024-01-15T06:08:33;14.10;;;11.60;;
33794;SDS011;51430;52.242;21.118;2024-01-15T06:11:19;13.50;;;11.70;;
33794;SDS011;51430;52.242;21.118;2024-01-15T06:13:49;13.80;;;12.40;;
33794;SDS011;51430;52.242;21.118;2024-01-15T06:16:17;13.60;;;12.20;;
33794;SDS011;51430;52.242;21.118;2024-01-15T06:19:42;13.00;;;11.80;;
33794;SDS011;51430;52.242;21.118;2024-01-15T06:29:02;11.90;;;10.30;;
33794;SDS011;51430;52.242;21.118;2024-01-15T06:31:30;13.30;;;12.00;;
33794;SDS011;51430;52.242;21.118;2024-01-15T06:33:57;13.30;;;12.00;;
33794;SDS011;51430;52.242;21.118;2024-01-15T06:36:32;13.20;;;11.90;;
33794;SDS011;51430;52.242;21.118;2024-01-15T06:39:10;13.20;;;11.80;;
33794;SDS011;51430;52.242;21.118;2024-01-15T06:41:52;14.10;;;12.70;;
33794;SDS011;51430;52.242;21.118;2024-01-15T06:44:25;13.80;;;12.40;;
33794;SDS011;51430;52.242;21.118;2024-01-15T06:46:55;13.60;;;12.10;;
33794;SDS011;51430;52.242;21.118;2024-01-15T06:49:23;12.70;;;11.30;;
33794;SDS011;51430;52.242;21.118;2024-01-15T06:51:52;13.90;;;12.50;;
33794;SDS011;51430;52.242;21.118;2024-01-15T06:56:37;14.30;;;10.60;;
33794;SDS011;51430;52.242;21.118;2024-01-15T06:59:05;13.50;;;12.20;;
33794;SDS011;51430;52.242;21.118;2024-01-15T07:01:33;12.80;;;10.90;;
33794;SDS011;51430;52.242;21.118;2024-01-15T07:04:01;12.10;;;10.90;;
33794;SDS011;51430;52.242;21.118;2024-01-15T07:06:29;13.20;;;11.80;;
33794;SDS011;51430;52.242;21.118;2024-01-15T07:09:17;13.40;;;12.10;;
33794;SDS011;51430;52.242;21.118;2024-01-15T07:11:55;13.90;;;12.40;;
33794;SDS011;51430;52.242;21.118;2024-01-15T07:14:27;14.00;;;12.50;;
33794;SDS011;51430;52.242;21.118;2024-01-15T07:17:07;13.90;;;12.40;;
33794;SDS011;51430;52.242;21.118;2024-01-15T07:19:35;13.30;;;11.90;;
33794;SDS011;51430;52.242;21.118;2024-01-15T07:22:06;15.30;;;12.70;;
33794;SDS011;51430;52.242;21.118;2024-01-15T07:24:35;15.10;;;13.50;;
33794;SDS011;51430;52.242;21.118;2024-01-15T07:27:04;14.60;;;13.00;;
33794;SDS011;51430;52.242;21.118;2024-01-15T07:29:32;14.50;;;13.00;;
33794;SDS011;51430;52.242;21.118;2024-01-15T07:32:07;15.10;;;13.50;;
33794;SDS011;51430;52.242;21.118;2024-01-15T07:34:35;15.00;;;13.40;;
33794;SDS011;51430;52.242;21.118;2024-01-15T07:37:04;16.00;;;14.30;;
33794;SDS011;51430;52.242;21.118;2024-01-15T07:39:33;16.40;;;14.10;;
33794;SDS011;51430;52.242;21.118;2024-01-15T07:42:02;17.90;;;15.20;;
33794;SDS011;51430;52.242;21.118;2024-01-15T07:44:30;15.70;;;14.20;;
33794;SDS011;51430;52.242;21.118;2024-01-15T07:46:58;16.00;;;14.30;;
33794;SDS011;51430;52.242;21.118;2024-01-15T07:49:30;15.90;;;14.20;;
33794;SDS011;51430;52.242;21.118;2024-01-15T07:52:00;14.80;;;13.30;;
33794;SDS011;51430;52.242;21.118;2024-01-15T07:54:52;15.50;;;13.90;;
33794;SDS011;51430;52.242;21.118;2024-01-15T07:57:33;14.50;;;13.00;;
33794;SDS011;51430;52.242;21.118;2024-01-15T08:00:43;15.10;;;13.50;;
33794;SDS011;51430;52.242;21.118;2024-01-15T08:03:18;15.30;;;12.50;;
33794;SDS011;51430;52.242;21.118;2024-01-15T08:12:19;11.20;;;10.00;;
33794;SDS011;51430;52.242;21.118;2024-01-15T08:14:48;12.50;;;11.20;;
33794;SDS011;51430;52.242;21.118;2024-01-15T08:17:37;12.10;;;10.80;;
33794;SDS011;51430;52.242;21.118;2024-01-15T08:20:25;12.90;;;11.60;;
33794;SDS011;51430;52.242;21.118;2024-01-15T08:23:12;13.30;;;12.10;;
33794;SDS011;51430;52.242;21.118;2024-01-15T08:25:42;12.70;;;11.40;;
33794;SDS011;51430;52.242;21.118;2024-01-15T08:28:08;12.00;;;10.80;;
33794;SDS011;51430;52.242;21.118;2024-01-15T08:30:37;11.60;;;10.40;;
33794;SDS011;51430;52.242;21.118;2024-01-15T08:33:10;11.30;;;10.20;;
33794;SDS011;51430;52.242;21.118;2024-01-15T08:35:47;11.50;;;10.40;;
33794;SDS011;51430;52.242;21.118;2024-01-15T08:38:15;10.40;;;9.40;;
33794;SDS011;51430;52.242;21.118;2024-01-15T08:40:42;10.80;;;9.20;;
33794;SDS011;51430;52.242;21.118;2024-01-15T08:43:11;10.80;;;9.70;;
33794;SDS011;51430;52.242;21.118;2024-01-15T08:45:38;10.60;;;9.60;;
33794;SDS011;51430;52.242;21.118;2024-01-15T08:48:05;10.00;;;8.90;;
33794;SDS011;51430;52.242;21.118;2024-01-15T08:50:32;9.90;;;8.90;;
33794;SDS011;51430;52.242;21.118;2024-01-15T08:53:04;9.80;;;8.90;;
33794;SDS011;51430;52.242;21.118;2024-01-15T08:55:31;10.30;;;9.20;;
33794;SDS011;51430;52.242;21.118;2024-01-15T08:58:00;10.50;;;9.40;;
33794;SDS011;51430;52.242;21.118;2024-01-15T09:00:26;11.00;;;9.90;;
33794;SDS011;51430;52.242;21.118;2024-01-15T09:02:53;11.70;;;10.50;;
33794;SDS011;51430;52.242;21.118;2024-01-15T09:05:20;10.30;;;9.30;;
33794;SDS011;51430;52.242;21.118;2024-01-15T09:07:47;9.80;;;8.90;;
33794;SDS011;51430;52.242;21.118;2024-01-15T09:10:14;10.90;;;9.80;;
33794;SDS011;51430;52.242;21.118;2024-01-15T09:12:41;11.40;;;10.30;;
33794;SDS011;51430;52.242;21.118;2024-01-15T09:15:08;11.30;;;10.20;;
33794;SDS011;51430;52.242;21.118;2024-01-15T09:17:36;11.00;;;9.90;;
33794;SDS011;51430;52.242;21.118;2024-01-15T09:20:02;11.10;;;9.90;;
33794;SDS011;51430;52.242;21.118;2024-01-15T09:22:32;10.40;;;9.40;;
33794;SDS011;51430;52.242;21.118;2024-01-15T09:24:59;10.40;;;9.30;;
33794;SDS011;51430;52.242;21.118;2024-01-15T09:27:26;10.20;;;9.10;;
33794;SDS011;51430;52.242;21.118;2024-01-15T09:29:55;10.20;;;9.10;;
33794;SDS011;51430;52.242;21.118;2024-01-15T09:32:24;9.20;;;8.30;;
33794;SDS011;51430;52.242;21.118;2024-01-15T09:34:52;8.40;;;7.60;;
33794;SDS011;51430;52.242;21.118;2024-01-15T09:37:20;8.30;;;7.50;;
33794;SDS011;51430;52.242;21.118;2024-01-15T09:40:14;8.40;;;7.40;;
33794;SDS011;51430;52.242;21.118;2024-01-15T09:42:43;8.30;;;7.30;;
33794;SDS011;51430;52.242;21.118;2024-01-15T09:45:13;9.50;;;7.30;;
33794;SDS011;51430;52.242;21.118;2024-01-15T09:47:45;7.70;;;6.80;;
33794;SDS011;51430;52.242;21.118;2024-01-15T09:50:15;8.20;;;6.50;;
33794;SDS011;51430;52.242;21.118;2024-01-15T09:52:44;7.00;;;6.20;;
33794;SDS011;51430;52.242;21.118;2024-01-15T09:55:17;7.90;;;6.60;;
33794;SDS011;51430;52.242;21.118;2024-01-15T09:58:07;7.80;;;6.90;;
33794;SDS011;51430;52.242;21.118;2024-01-15T10:01:02;9.20;;;6.60;;
33794;SDS011;51430;52.242;21.118;2024-01-15T10:04:14;8.40;;;6.10;;
33794;SDS011;51430;52.242;21.118;2024-01-15T10:07:59;8.10;;;5.90;;
33794;SDS011;51430;52.242;21.118;2024-01-15T10:10:27;9.30;;;6.70;;
33794;SDS011;51430;52.242;21.118;2024-01-15T10:13:11;7.40;;;6.10;;
33794;SDS011;51430;52.242;21.118;2024-01-15T10:15:44;8.80;;;6.50;;
33794;SDS011;51430;52.242;21.118;2024-01-15T10:18:15;7.30;;;5.80;;
33794;SDS011;51430;52.242;21.118;2024-01-15T10:20:44;7.70;;;5.90;;
33794;SDS011;51430;52.242;21.118;2024-01-15T10:23:12;7.30;;;6.00;;
33794;SDS011;51430;52.242;21.118;2024-01-15T10:25:41;8.60;;;6.30;;
33794;SDS011;51430;52.242;21.118;2024-01-15T10:28:09;9.30;;;6.60;;
33794;SDS011;51430;52.242;21.118;2024-01-15T10:30:37;8.60;;;6.10;;
33794;SDS011;51430;52.242;21.118;2024-01-15T10:33:04;9.10;;;6.40;;
33794;SDS011;51430;52.242;21.118;2024-01-15T10:35:32;8.40;;;6.00;;
33794;SDS011;51430;52.242;21.118;2024-01-15T10:38:01;8.50;;;6.30;;
33794;SDS011;51430;52.242;21.118;2024-01-15T10:40:31;9.20;;;7.00;;
33794;SDS011;51430;52.242;21.118;2024-01-15T10:43:00;11.20;;;7.20;;
33794;SDS011;51430;52.242;21.118;2024-01-15T10:45:28;10.30;;;7.20;;
33794;SDS011;51430;52.242;21.118;2024-01-15T10:47:55;9.70;;;7.10;;
33794;SDS011;51430;52.242;21.118;2024-01-15T10:50:26;8.90;;;6.80;;
33794;SDS011;51430;52.242;21.118;2024-01-15T10:52:54;9.30;;;7.40;;
33794;SDS011;51430;52.242;21.118;2024-01-15T10:55:24;9.20;;;6.70;;
33794;SDS011;51430;52.242;21.118;2024-01-15T10:58:35;8.30;;;6.90;;
33794;SDS011;51430;52.242;21.118;2024-01-15T11:02:05;8.60;;;6.70;;
33794;SDS011;51430;52.242;21.118;2024-01-15T11:05:38;9.00;;;6.60;;
33794;SDS011;51430;52.242;21.118;2024-01-15T11:08:29;8.60;;;6.50;;
33794;SDS011;51430;52.242;21.118;2024-01-15T11:11:47;8.00;;;6.30;;
33794;SDS011;51430;52.242;21.118;2024-01-15T11:15:03;8.50;;;6.80;;
33794;SDS011;51430;52.242;21.118;2024-01-15T11:18:18;8.90;;;6.60;;
33794;SDS011;51430;52.242;21.118;2024-01-15T11:25:13;9.90;;;6.80;;
33794;SDS011;51430;52.242;21.118;2024-01-15T11:32:19;8.20;;;6.90;;
33794;SDS011;51430;52.242;21.118;2024-01-15T11:34:59;7.20;;;6.40;;
33794;SDS011;51430;52.242;21.118;2024-01-15T11:38:28;9.60;;;7.20;;
33794;SDS011;51430;52.242;21.118;2024-01-15T11:41:46;9.20;;;7.00;;
33794;SDS011;51430;52.242;21.118;2024-01-15T11:45:10;10.40;;;7.00;;
33794;SDS011;51430;52.242;21.118;2024-01-15T11:50:52;9.30;;;7.50;;
33794;SDS011;51430;52.242;21.118;2024-01-15T11:54:21;8.60;;;7.10;;
33794;SDS011;51430;52.242;21.118;2024-01-15T12:02:30;11.10;;;6.80;;
33794;SDS011;51430;52.242;21.118;2024-01-15T12:09:50;9.60;;;7.40;;
33794;SDS011;51430;52.242;21.118;2024-01-15T12:13:30;9.90;;;7.60;;
33794;SDS011;51430;52.242;21.118;2024-01-15T12:18:08;9.10;;;7.20;;
33794;SDS011;51430;52.242;21.118;2024-01-15T12:23:05;9.80;;;7.40;;
33794;SDS011;51430;52.242;21.118;2024-01-15T12:52:09;11.00;;;8.40;;
33794;SDS011;51430;52.242;21.118;2024-01-15T12:55:51;11.60;;;9.20;;
33794;SDS011;51430;52.242;21.118;2024-01-15T12:58:32;11.20;;;9.60;;
33794;SDS011;51430;52.242;21.118;2024-01-15T13:02:21;11.00;;;9.10;;
33794;SDS011;51430;52.242;21.118;2024-01-15T13:05:27;12.60;;;9.00;;
33794;SDS011;51430;52.242;21.118;2024-01-15T13:08:14;10.90;;;8.60;;
33794;SDS011;51430;52.242;21.118;2024-01-15T13:11:53;11.20;;;8.70;;
33794;SDS011;51430;52.242;21.118;2024-01-15T13:14:23;11.00;;;8.50;;
33794;SDS011;51430;52.242;21.118;2024-01-15T13:16:58;11.60;;;9.20;;
33794;SDS011;51430;52.242;21.118;2024-01-15T13:19:27;11.50;;;8.90;;
33794;SDS011;51430;52.242;21.118;2024-01-15T13:21:58;10.10;;;8.50;;
33794;SDS011;51430;52.242;21.118;2024-01-15T13:24:28;12.70;;;9.00;;
33794;SDS011;51430;52.242;21.118;2024-01-15T13:27:02;12.70;;;9.20;;
33794;SDS011;51430;52.242;21.118;2024-01-15T13:29:34;13.80;;;9.70;;
33794;SDS011;51430;52.242;21.118;2024-01-15T13:32:02;13.60;;;10.40;;
33794;SDS011;51430;52.242;21.118;2024-01-15T13:34:35;12.40;;;9.60;;
33794;SDS011;51430;52.242;21.118;2024-01-15T13:37:03;12.20;;;10.10;;
33794;SDS011;51430;52.242;21.118;2024-01-15T13:41:52;10.00;;;8.10;;
33794;SDS011;51430;52.242;21.118;2024-01-15T13:44:56;10.30;;;8.60;;
33794;SDS011;51430;52.242;21.118;2024-01-15T13:53:44;13.60;;;8.10;;
33794;SDS011;51430;52.242;21.118;2024-01-15T13:56:12;12.50;;;9.10;;
33794;SDS011;51430;52.242;21.118;2024-01-15T13:58:42;11.90;;;8.90;;
33794;SDS011;51430;52.242;21.118;2024-01-15T14:01:15;12.30;;;9.40;;
33794;SDS011;51430;52.242;21.118;2024-01-15T14:03:45;11.80;;;9.00;;
33794;SDS011;51430;52.242;21.118;2024-01-15T14:06:48;10.00;;;8.70;;
33794;SDS011;51430;52.242;21.118;2024-01-15T14:09:18;13.40;;;8.70;;
33794;SDS011;51430;52.242;21.118;2024-01-15T14:11:46;14.10;;;10.00;;
33794;SDS011;51430;52.242;21.118;2024-01-15T14:14:15;11.40;;;9.00;;
33794;SDS011;51430;52.242;21.118;2024-01-15T14:16:45;13.70;;;9.40;;
33794;SDS011;51430;52.242;21.118;2024-01-15T14:19:34;11.80;;;9.10;;
33794;SDS011;51430;52.242;21.118;2024-01-15T14:22:04;12.80;;;9.50;;
33794;SDS011;51430;52.242;21.118;2024-01-15T14:24:33;12.20;;;8.90;;
33794;SDS011;51430;52.242;21.118;2024-01-15T14:27:04;14.10;;;9.60;;
33794;SDS011;51430;52.242;21.118;2024-01-15T14:29:33;13.40;;;9.70;;
33794;SDS011;51430;52.242;21.118;2024-01-15T14:32:03;12.30;;;9.10;;
33794;SDS011;51430;52.242;21.118;2024-01-15T14:34:33;12.10;;;8.80;;
33794;SDS011;51430;52.242;21.118;2024-01-15T14:37:01;11.00;;;8.50;;
33794;SDS011;51430;52.242;21.118;2024-01-15T14:40:04;13.20;;;9.10;;
33794;SDS011;51430;52.242;21.118;2024-01-15T14:45:02;10.80;;;7.60;;
33794;SDS011;51430;52.242;21.118;2024-01-15T14:47:47;12.40;;;8.50;;
33794;SDS011;51430;52.242;21.118;2024-01-15T14:51:37;13.00;;;9.00;;
33794;SDS011;51430;52.242;21.118;2024-01-15T14:54:06;13.00;;;9.50;;
33794;SDS011;51430;52.242;21.118;2024-01-15T14:56:57;13.90;;;10.00;;
33794;SDS011;51430;52.242;21.118;2024-01-15T14:59:27;13.40;;;9.60;;
33794;SDS011;51430;52.242;21.118;2024-01-15T15:02:05;13.70;;;9.60;;
33794;SDS011;51430;52.242;21.118;2024-01-15T15:04:42;13.10;;;9.30;;
33794;SDS011;51430;52.242;21.118;2024-01-15T15:08:10;13.40;;;9.50;;
33794;SDS011;51430;52.242;21.118;2024-01-15T15:12:09;12.20;;;9.00;;
33794;SDS011;51430;52.242;21.118;2024-01-15T15:16:05;12.20;;;9.10;;
33794;SDS011;51430;52.242;21.118;2024-01-15T15:26:29;12.30;;;9.10;;
33794;SDS011;51430;52.242;21.118;2024-01-15T15:33:29;13.60;;;9.20;;
33794;SDS011;51430;52.242;21.118;2024-01-15T15:37:13;13.00;;;9.10;;
33794;SDS011;51430;52.242;21.118;2024-01-15T15:44:01;13.70;;;9.40;;
33794;SDS011;51430;52.242;21.118;2024-01-15T15:51:43;11.10;;;7.60;;
33794;SDS011;51430;52.242;21.118;2024-01-15T16:21:01;10.80;;;7.50;;
33794;SDS011;51430;52.242;21.118;2024-01-15T17:03:19;11.10;;;8.10;;
33794;SDS011;51430;52.242;21.118;2024-01-15T17:06:15;12.50;;;7.90;;
33794;SDS011;51430;52.242;21.118;2024-01-15T17:11:47;12.30;;;8.60;;
33794;SDS011;51430;52.242;21.118;2024-01-15T17:17:02;12.20;;;6.30;;
33794;SDS011;51430;52.242;21.118;2024-01-15T17:19:55;10.80;;;6.30;;
33794;SDS011;51430;52.242;21.118;2024-01-15T17:23:34;10.80;;;6.90;;
33794;SDS011;51430;52.242;21.118;2024-01-15T17:27:04;7.90;;;6.30;;
33794;SDS011;51430;52.242;21.118;2024-01-15T17:30:19;10.80;;;5.80;;
33794;SDS011;51430;52.242;21.118;2024-01-15T17:36:03;9.60;;;6.40;;
33794;SDS011;51430;52.242;21.118;2024-01-15T17:39:03;7.60;;;5.60;;
33794;SDS011;51430;52.242;21.118;2024-01-15T17:45:30;6.40;;;5.40;;
33794;SDS011;51430;52.242;21.118;2024-01-15T17:48:33;5.90;;;4.80;;
33794;SDS011;51430;52.242;21.118;2024-01-15T17:52:10;7.00;;;5.50;;
33794;SDS011;51430;52.242;21.118;2024-01-15T17:54:47;8.40;;;6.70;;
33794;SDS011;51430;52.242;21.118;2024-01-15T18:13:57;18.10;;;11.40;;
33794;SDS011;51430;52.242;21.118;2024-01-15T18:17:56;19.20;;;13.80;;
33794;SDS011;51430;52.242;21.118;2024-01-15T18:21:19;22.90;;;14.80;;
33794;SDS011;51430;52.242;21.118;2024-01-15T18:24:27;23.20;;;16.40;;
33794;SDS011;51430;52.242;21.118;2024-01-15T18:26:54;22.60;;;15.50;;
33794;SDS011;51430;52.242;21.118;2024-01-15T18:29:39;22.30;;;16.30;;
33794;SDS011;51430;52.242;21.118;2024-01-15T18:32:10;18.80;;;13.90;;
33794;SDS011;51430;52.242;21.118;2024-01-15T18:34:56;20.90;;;14.80;;
33794;SDS011;51430;52.242;21.118;2024-01-15T18:37:43;18.90;;;14.30;;
33794;SDS011;51430;52.242;21.118;2024-01-15T18:40:13;20.90;;;14.90;;
33794;SDS011;51430;52.242;21.118;2024-01-15T18:43:03;21.90;;;15.30;;
33794;SDS011;51430;52.242;21.118;2024-01-15T18:45:33;19.80;;;15.40;;
33794;SDS011;51430;52.242;21.118;2024-01-15T18:48:03;20.50;;;15.10;;
33794;SDS011;51430;52.242;21.118;2024-01-15T18:50:32;16.70;;;13.80;;
33794;SDS011;51430;52.242;21.118;2024-01-15T18:53:00;17.60;;;13.70;;
33794;SDS011;51430;52.242;21.118;2024-01-15T18:55:27;14.70;;;12.30;;
33794;SDS011;51430;52.242;21.118;2024-01-15T18:57:54;14.00;;;12.00;;
33794;SDS011;51430;52.242;21.118;2024-01-15T19:00:26;12.70;;;11.10;;
33794;SDS011;51430;52.242;21.118;2024-01-15T19:02:53;11.70;;;10.00;;
33794;SDS011;51430;52.242;21.118;2024-01-15T19:05:24;10.50;;;9.40;;
33794;SDS011;51430;52.242;21.118;2024-01-15T19:07:51;9.90;;;8.80;;
33794;SDS011;51430;52.242;21.118;2024-01-15T19:10:19;9.50;;;8.50;;
33794;SDS011;51430;52.242;21.118;2024-01-15T19:12:47;8.50;;;7.60;;
33794;SDS011;51430;52.242;21.118;2024-01-15T19:15:15;8.50;;;7.00;;
33794;SDS011;51430;52.242;21.118;2024-01-15T19:19:23;8.60;;;6.30;;
33794;SDS011;51430;52.242;21.118;2024-01-15T19:23:03;8.90;;;6.70;;
33794;SDS011;51430;52.242;21.118;2024-01-15T19:25:39;8.90;;;7.20;;
33794;SDS011;51430;52.242;21.118;2024-01-15T19:29:17;6.30;;;4.80;;
33794;SDS011;51430;52.242;21.118;2024-01-15T19:32:46;6.40;;;5.50;;
33794;SDS011;51430;52.242;21.118;2024-01-15T19:36:29;6.30;;;4.60;;
33794;SDS011;51430;52.242;21.118;2024-01-15T19:39:42;6.70;;;4.10;;
33794;SDS011;51430;52.242;21.118;2024-01-15T19:42:57;5.50;;;4.10;;
33794;SDS011;51430;52.242;21.118;2024-01-15T19:46:58;4.90;;;4.30;;
33794;SDS011;51430;52.242;21.118;2024-01-15T19:50:37;7.10;;;4.40;;
33794;SDS011;51430;52.242;21.118;2024-01-15T19:53:38;5.50;;;3.90;;
33794;SDS011;51430;52.242;21.118;2024-01-15T19:57:07;6.50;;;4.10;;
33794;SDS011;51430;52.242;21.118;2024-01-15T20:00:50;5.90;;;3.70;;
33794;SDS011;51430;52.242;21.118;2024-01-15T20:04:19;5.50;;;3.70;;
33794;SDS011;51430;52.242;21.118;2024-01-15T20:06:58;6.50;;;3.60;;
33794;SDS011;51430;52.242;21.118;2024-01-15T20:13:03;5.00;;;2.80;;
33794;SDS011;51430;52.242;21.118;2024-01-15T20:16:40;5.10;;;3.40;;
33794;SDS011;51430;52.242;21.118;2024-01-15T20:20:17;4.00;;;3.10;;
33794;SDS011;51430;52.242;21.118;2024-01-15T20:23:34;5.30;;;3.30;;
33794;SDS011;51430;52.242;21.118;2024-01-15T20:27:19;4.70;;;3.30;;
33794;SDS011;51430;52.242;21.118;2024-01-15T20:52:40;5.00;;;2.90;;
33794;SDS011;51430;52.242;21.118;2024-01-15T21:02:26;7.00;;;3.80;;
33794;SDS011;51430;52.242;21.118;2024-01-15T21:13:33;5.30;;;2.90;;
33794;SDS011;51430;52.242;21.118;2024-01-15T21:22:02;3.50;;;2.20;;
33794;SDS011;51430;52.242;21.118;2024-01-15T21:35:44;4.80;;;2.30;;
33794;SDS011;51430;52.242;21.118;2024-01-15T21:40:35;5.00;;;2.90;;
33794;SDS011;51430;52.242;21.118;2024-01-15T21:43:37;6.10;;;3.50;;
33794;SDS011;51430;52.242;21.118;2024-01-15T21:50:09;6.50;;;3.50;;
33794;SDS011;51430;52.242;21.118;2024-01-15T22:42:44;2.90;;;2.50;;
33794;SDS011;51430;52.242;21.118;2024-01-15T22:57:30;2.70;;;2.00;;
33794;SDS011;51430;52.242;21.118;2024-01-15T23:41:21;2.40;;;1.50;;
33794;SDS011;51430;52.242;21.118;2024-01-15T23:45:02;4.30;;;1.70;;
33794;SDS011;51430;52.242;21.118;2024-01-15T23:59:26;3.60;;;2.30;;
